sensor_id;sensor_type;location;lat;lon;timestamp;P1;durP1;ratioP1;P2;durP2;ratioP2
10677;SDS011;5387;48.722;9.110;2023-08-08T00:01:29;1.93;;;1.53;;
10677;SDS011;5387;48.722;9.110;2023-08-08T00:03:56;1.63;;;1.53;;
10677;SDS011;5387;48.722;9.110;2023-08-08T00:06:23;1.50;;;1.37;;
10677;SDS011;5387;48.722;9.110;2023-08-08T00:08:51;1.70;;;1.60;;
10677;SDS011;5387;48.722;9.110;2023-08-08T00:11:18;1.87;;;1.50;;
10677;SDS011;5387;48.722;9.110;2023-08-08T00:13:45;1.60;;;1.50;;
10677;SDS011;5387;48.722;9.110;2023-08-08T00:16:11;2.00;;;1.53;;
10677;SDS011;5387;48.722;9.110;2023-08-08T00:18:38;1.73;;;1.33;;
10677;SDS011;5387;48.722;9.110;2023-08-08T00:21:05;1.53;;;1.43;;
10677;SDS011;5387;48.722;9.110;2023-08-08T00:23:32;3.40;;;1.50;;
10677;SDS011;5387;48.722;9.110;2023-08-08T00:26:00;2.00;;;1.50;;
10677;SDS011;5387;48.722;9.110;2023-08-08T00:28:26;1.50;;;1.30;;
10677;SDS011;5387;48.722;9.110;2023-08-08T00:30:53;3.83;;;1.57;;
10677;SDS011;5387;48.722;9.110;2023-08-08T00:33:20;2.43;;;1.47;;
10677;SDS011;5387;48.722;9.110;2023-08-08T00:35:47;1.50;;;1.40;;
10677;SDS011;5387;48.722;9.110;2023-08-08T00:38:13;2.30;;;1.77;;
10677;SDS011;5387;48.722;9.110;2023-08-08T00:40:41;2.83;;;1.30;;
10677;SDS011;5387;48.722;9.110;2023-08-08T00:43:09;1.80;;;1.67;;
10677;SDS011;5387;48.722;9.110;2023-08-08T00:45:36;1.23;;;1.23;;
10677;SDS011;5387;48.722;9.110;2023-08-08T00:48:04;1.50;;;1.40;;
10677;SDS011;5387;48.722;9.110;2023-08-08T00:50:31;1.53;;;1.43;;
10677;SDS011;5387;48.722;9.110;2023-08-08T00:52:58;2.07;;;1.30;;
10677;SDS011;5387;48.722;9.110;2023-08-08T00:55:24;2.30;;;1.40;;
10677;SDS011;5387;48.722;9.110;2023-08-08T00:57:52;2.00;;;1.60;;
10677;SDS011;5387;48.722;9.110;2023-08-08T01:00:20;1.63;;;1.47;;
10677;SDS011;5387;48.722;9.110;2023-08-08T01:02:47;1.42;;;1.33;;
10677;SDS011;5387;48.722;9.110;2023-08-08T01:05:14;1.50;;;1.40;;
10677;SDS011;5387;48.722;9.110;2023-08-08T01:07:41;1.37;;;1.27;;
10677;SDS011;5387;48.722;9.110;2023-08-08T01:10:14;2.53;;;1.50;;
10677;SDS011;5387;48.722;9.110;2023-08-08T01:12:44;3.10;;;1.30;;
10677;SDS011;5387;48.722;9.110;2023-08-08T01:15:13;1.53;;;1.43;;
10677;SDS011;5387;48.722;9.110;2023-08-08T01:17:43;1.33;;;1.20;;
10677;SDS011;5387;48.722;9.110;2023-08-08T01:20:11;1.70;;;1.60;;
10677;SDS011;5387;48.722;9.110;2023-08-08T01:22:43;1.30;;;1.30;;
10677;SDS011;5387;48.722;9.110;2023-08-08T01:25:26;1.53;;;1.30;;
10677;SDS011;5387;48.722;9.110;2023-08-08T01:27:52;1.50;;;1.40;;
10677;SDS011;5387;48.722;9.110;2023-08-08T01:30:19;1.30;;;1.30;;
10677;SDS011;5387;48.722;9.110;2023-08-08T01:32:46;1.30;;;1.20;;
10677;SDS011;5387;48.722;9.110;2023-08-08T01:35:13;1.37;;;1.27;;
10677;SDS011;5387;48.722;9.110;2023-08-08T01:37:42;1.40;;;1.27;;
10677;SDS011;5387;48.722;9.110;2023-08-08T01:40:12;1.60;;;1.50;;
10677;SDS011;5387;48.722;9.110;2023-08-08T01:42:44;1.27;;;1.23;;
10677;SDS011;5387;48.722;9.110;2023-08-08T01:45:13;1.53;;;1.43;;
10677;SDS011;5387;48.722;9.110;2023-08-08T01:47:41;4.60;;;1.50;;
10677;SDS011;5387;48.722;9.110;2023-08-08T01:50:09;2.37;;;1.80;;
10677;SDS011;5387;48.722;9.110;2023-08-08T01:52:36;2.00;;;1.63;;
10677;SDS011;5387;48.722;9.110;2023-08-08T01:55:03;4.32;;;2.38;;
10677;SDS011;5387;48.722;9.110;2023-08-08T01:57:30;4.93;;;2.63;;
10677;SDS011;5387;48.722;9.110;2023-08-08T01:59:58;4.30;;;3.27;;
10677;SDS011;5387;48.722;9.110;2023-08-08T02:02:25;8.30;;;4.90;;
10677;SDS011;5387;48.722;9.110;2023-08-08T02:04:52;9.40;;;5.50;;
10677;SDS011;5387;48.722;9.110;2023-08-08T02:07:18;8.80;;;5.53;;
10677;SDS011;5387;48.722;9.110;2023-08-08T02:09:45;5.47;;;3.30;;
10677;SDS011;5387;48.722;9.110;2023-08-08T02:12:12;4.90;;;2.20;;
10677;SDS011;5387;48.722;9.110;2023-08-08T02:14:39;2.33;;;1.80;;
10677;SDS011;5387;48.722;9.110;2023-08-08T02:17:07;2.50;;;2.03;;
10677;SDS011;5387;48.722;9.110;2023-08-08T02:19:34;6.93;;;2.70;;
10677;SDS011;5387;48.722;9.110;2023-08-08T02:22:00;4.13;;;2.20;;
10677;SDS011;5387;48.722;9.110;2023-08-08T02:24:28;4.73;;;2.70;;
10677;SDS011;5387;48.722;9.110;2023-08-08T02:26:54;9.87;;;3.50;;
10677;SDS011;5387;48.722;9.110;2023-08-08T02:29:21;7.82;;;3.08;;
10677;SDS011;5387;48.722;9.110;2023-08-08T02:31:48;4.63;;;2.80;;
10677;SDS011;5387;48.722;9.110;2023-08-08T02:34:16;8.90;;;3.30;;
10677;SDS011;5387;48.722;9.110;2023-08-08T02:36:43;8.20;;;3.07;;
10677;SDS011;5387;48.722;9.110;2023-08-08T02:39:10;3.93;;;2.30;;
10677;SDS011;5387;48.722;9.110;2023-08-08T02:41:37;4.00;;;2.37;;
10677;SDS011;5387;48.722;9.110;2023-08-08T02:44:03;5.30;;;1.83;;
10677;SDS011;5387;48.722;9.110;2023-08-08T02:46:30;4.13;;;2.10;;
10677;SDS011;5387;48.722;9.110;2023-08-08T02:48:57;1.83;;;1.60;;
10677;SDS011;5387;48.722;9.110;2023-08-08T02:51:25;2.67;;;1.87;;
10677;SDS011;5387;48.722;9.110;2023-08-08T02:53:52;2.53;;;1.80;;
10677;SDS011;5387;48.722;9.110;2023-08-08T02:56:18;3.43;;;2.37;;
10677;SDS011;5387;48.722;9.110;2023-08-08T02:58:45;3.47;;;2.37;;
10677;SDS011;5387;48.722;9.110;2023-08-08T03:01:12;4.23;;;1.73;;
10677;SDS011;5387;48.722;9.110;2023-08-08T03:03:40;6.83;;;2.17;;
10677;SDS011;5387;48.722;9.110;2023-08-08T03:06:07;3.57;;;2.47;;
10677;SDS011;5387;48.722;9.110;2023-08-08T03:08:36;2.07;;;1.67;;
10677;SDS011;5387;48.722;9.110;2023-08-08T03:11:02;5.07;;;1.87;;
10677;SDS011;5387;48.722;9.110;2023-08-08T03:13:29;3.43;;;1.83;;
10677;SDS011;5387;48.722;9.110;2023-08-08T03:15:56;2.50;;;1.50;;
10677;SDS011;5387;48.722;9.110;2023-08-08T03:18:23;2.33;;;1.60;;
10677;SDS011;5387;48.722;9.110;2023-08-08T03:20:50;2.83;;;2.00;;
10677;SDS011;5387;48.722;9.110;2023-08-08T03:23:17;2.13;;;1.93;;
10677;SDS011;5387;48.722;9.110;2023-08-08T03:25:45;4.07;;;2.00;;
10677;SDS011;5387;48.722;9.110;2023-08-08T03:28:12;2.20;;;2.00;;
10677;SDS011;5387;48.722;9.110;2023-08-08T03:30:39;2.10;;;1.90;;
10677;SDS011;5387;48.722;9.110;2023-08-08T03:33:06;1.87;;;1.50;;
10677;SDS011;5387;48.722;9.110;2023-08-08T03:35:32;1.80;;;1.50;;
10677;SDS011;5387;48.722;9.110;2023-08-08T03:37:59;2.57;;;1.87;;
10677;SDS011;5387;48.722;9.110;2023-08-08T03:40:26;2.13;;;1.93;;
10677;SDS011;5387;48.722;9.110;2023-08-08T03:42:54;1.63;;;1.53;;
10677;SDS011;5387;48.722;9.110;2023-08-08T03:45:21;2.47;;;1.63;;
10677;SDS011;5387;48.722;9.110;2023-08-08T03:47:48;4.23;;;1.93;;
10677;SDS011;5387;48.722;9.110;2023-08-08T03:50:14;3.93;;;1.80;;
10677;SDS011;5387;48.722;9.110;2023-08-08T03:52:41;3.10;;;1.97;;
10677;SDS011;5387;48.722;9.110;2023-08-08T03:55:08;3.20;;;2.20;;
10677;SDS011;5387;48.722;9.110;2023-08-08T03:57:35;2.20;;;1.87;;
10677;SDS011;5387;48.722;9.110;2023-08-08T04:00:04;2.87;;;1.97;;
10677;SDS011;5387;48.722;9.110;2023-08-08T04:02:33;4.17;;;1.73;;
10677;SDS011;5387;48.722;9.110;2023-08-08T04:05:00;2.80;;;1.60;;
10677;SDS011;5387;48.722;9.110;2023-08-08T04:07:27;3.03;;;1.90;;
10677;SDS011;5387;48.722;9.110;2023-08-08T04:09:53;4.40;;;2.00;;
10677;SDS011;5387;48.722;9.110;2023-08-08T04:12:20;1.70;;;1.60;;
10677;SDS011;5387;48.722;9.110;2023-08-08T04:14:47;2.17;;;1.97;;
10677;SDS011;5387;48.722;9.110;2023-08-08T04:17:15;2.33;;;2.10;;
10677;SDS011;5387;48.722;9.110;2023-08-08T04:19:42;3.10;;;1.80;;
10677;SDS011;5387;48.722;9.110;2023-08-08T04:22:09;3.00;;;1.70;;
10677;SDS011;5387;48.722;9.110;2023-08-08T04:24:36;1.40;;;1.30;;
10677;SDS011;5387;48.722;9.110;2023-08-08T04:27:04;4.70;;;2.07;;
10677;SDS011;5387;48.722;9.110;2023-08-08T04:29:30;2.00;;;1.57;;
10677;SDS011;5387;48.722;9.110;2023-08-08T04:31:57;1.93;;;1.70;;
10677;SDS011;5387;48.722;9.110;2023-08-08T04:34:25;2.90;;;1.87;;
10677;SDS011;5387;48.722;9.110;2023-08-08T04:36:52;3.73;;;1.77;;
10677;SDS011;5387;48.722;9.110;2023-08-08T04:39:19;2.73;;;1.53;;
10677;SDS011;5387;48.722;9.110;2023-08-08T04:41:46;3.58;;;1.52;;
10677;SDS011;5387;48.722;9.110;2023-08-08T04:44:12;1.70;;;1.57;;
10677;SDS011;5387;48.722;9.110;2023-08-08T04:46:39;1.87;;;1.77;;
10677;SDS011;5387;48.722;9.110;2023-08-08T04:49:06;2.70;;;1.63;;
10677;SDS011;5387;48.722;9.110;2023-08-08T04:51:34;1.60;;;1.50;;
10677;SDS011;5387;48.722;9.110;2023-08-08T04:54:01;1.43;;;1.33;;
10677;SDS011;5387;48.722;9.110;2023-08-08T04:56:28;2.00;;;1.67;;
10677;SDS011;5387;48.722;9.110;2023-08-08T04:58:54;2.27;;;1.60;;
10677;SDS011;5387;48.722;9.110;2023-08-08T05:01:21;1.57;;;1.33;;
10677;SDS011;5387;48.722;9.110;2023-08-08T05:03:48;1.40;;;1.30;;
10677;SDS011;5387;48.722;9.110;2023-08-08T05:06:15;5.90;;;1.77;;
10677;SDS011;5387;48.722;9.110;2023-08-08T05:08:43;2.40;;;1.60;;
10677;SDS011;5387;48.722;9.110;2023-08-08T05:11:10;1.60;;;1.50;;
10677;SDS011;5387;48.722;9.110;2023-08-08T05:13:37;2.23;;;1.50;;
10677;SDS011;5387;48.722;9.110;2023-08-08T05:16:04;3.83;;;1.50;;
10677;SDS011;5387;48.722;9.110;2023-08-08T05:18:31;1.73;;;1.60;;
10677;SDS011;5387;48.722;9.110;2023-08-08T05:20:58;1.70;;;1.40;;
10677;SDS011;5387;48.722;9.110;2023-08-08T05:23:24;1.77;;;1.60;;
10677;SDS011;5387;48.722;9.110;2023-08-08T05:25:52;1.83;;;1.50;;
10677;SDS011;5387;48.722;9.110;2023-08-08T05:28:19;1.30;;;1.20;;
10677;SDS011;5387;48.722;9.110;2023-08-08T05:30:46;1.53;;;1.43;;
10677;SDS011;5387;48.722;9.110;2023-08-08T05:33:14;1.93;;;1.30;;
10677;SDS011;5387;48.722;9.110;2023-08-08T05:35:40;3.10;;;1.40;;
10677;SDS011;5387;48.722;9.110;2023-08-08T05:38:07;3.28;;;1.50;;
10677;SDS011;5387;48.722;9.110;2023-08-08T05:40:34;3.90;;;1.50;;
10677;SDS011;5387;48.722;9.110;2023-08-08T05:43:03;2.03;;;1.50;;
10677;SDS011;5387;48.722;9.110;2023-08-08T05:45:30;2.07;;;1.40;;
10677;SDS011;5387;48.722;9.110;2023-08-08T05:47:57;1.37;;;1.27;;
10677;SDS011;5387;48.722;9.110;2023-08-08T05:50:25;3.13;;;1.48;;
10677;SDS011;5387;48.722;9.110;2023-08-08T05:52:52;1.55;;;1.45;;
10677;SDS011;5387;48.722;9.110;2023-08-08T05:55:19;2.13;;;1.70;;
10677;SDS011;5387;48.722;9.110;2023-08-08T05:57:46;1.83;;;1.47;;
10677;SDS011;5387;48.722;9.110;2023-08-08T06:00:15;3.53;;;2.00;;
10677;SDS011;5387;48.722;9.110;2023-08-08T06:02:42;3.67;;;1.40;;
10677;SDS011;5387;48.722;9.110;2023-08-08T06:05:10;1.77;;;1.50;;
10677;SDS011;5387;48.722;9.110;2023-08-08T06:07:37;1.52;;;1.42;;
10677;SDS011;5387;48.722;9.110;2023-08-08T06:10:04;4.40;;;1.70;;
10677;SDS011;5387;48.722;9.110;2023-08-08T06:12:31;2.90;;;1.75;;
10677;SDS011;5387;48.722;9.110;2023-08-08T06:14:58;2.13;;;1.50;;
10677;SDS011;5387;48.722;9.110;2023-08-08T06:17:26;1.48;;;1.30;;
10677;SDS011;5387;48.722;9.110;2023-08-08T06:19:53;1.73;;;1.27;;
10677;SDS011;5387;48.722;9.110;2023-08-08T06:22:22;2.72;;;1.52;;
10677;SDS011;5387;48.722;9.110;2023-08-08T06:24:49;1.70;;;1.30;;
10677;SDS011;5387;48.722;9.110;2023-08-08T06:27:16;1.67;;;1.45;;
10677;SDS011;5387;48.722;9.110;2023-08-08T06:29:43;2.30;;;2.00;;
10677;SDS011;5387;48.722;9.110;2023-08-08T06:32:10;1.90;;;1.63;;
10677;SDS011;5387;48.722;9.110;2023-08-08T06:34:38;2.60;;;1.92;;
10677;SDS011;5387;48.722;9.110;2023-08-08T06:37:05;1.45;;;1.35;;
10677;SDS011;5387;48.722;9.110;2023-08-08T06:39:31;2.33;;;1.27;;
10677;SDS011;5387;48.722;9.110;2023-08-08T06:42:00;2.88;;;1.52;;
10677;SDS011;5387;48.722;9.110;2023-08-08T06:44:26;2.13;;;1.10;;
10677;SDS011;5387;48.722;9.110;2023-08-08T06:46:53;1.75;;;1.27;;
10677;SDS011;5387;48.722;9.110;2023-08-08T06:49:20;1.92;;;1.70;;
10677;SDS011;5387;48.722;9.110;2023-08-08T06:51:48;1.73;;;1.60;;
10677;SDS011;5387;48.722;9.110;2023-08-08T06:54:15;1.60;;;1.35;;
10677;SDS011;5387;48.722;9.110;2023-08-08T06:56:42;1.63;;;1.50;;
10677;SDS011;5387;48.722;9.110;2023-08-08T06:59:08;2.90;;;1.40;;
10677;SDS011;5387;48.722;9.110;2023-08-08T07:01:35;2.60;;;1.63;;
10677;SDS011;5387;48.722;9.110;2023-08-08T07:04:02;2.15;;;1.60;;
10677;SDS011;5387;48.722;9.110;2023-08-08T07:06:29;1.80;;;1.52;;
10677;SDS011;5387;48.722;9.110;2023-08-08T07:08:57;1.33;;;1.33;;
10677;SDS011;5387;48.722;9.110;2023-08-08T07:11:24;2.65;;;1.35;;
10677;SDS011;5387;48.722;9.110;2023-08-08T07:13:51;1.92;;;1.55;;
10677;SDS011;5387;48.722;9.110;2023-08-08T07:16:17;2.13;;;1.83;;
10677;SDS011;5387;48.722;9.110;2023-08-08T07:18:44;1.40;;;1.30;;
10677;SDS011;5387;48.722;9.110;2023-08-08T07:21:11;7.07;;;1.70;;
10677;SDS011;5387;48.722;9.110;2023-08-08T07:23:38;3.70;;;1.30;;
10677;SDS011;5387;48.722;9.110;2023-08-08T07:26:06;1.75;;;1.63;;
10677;SDS011;5387;48.722;9.110;2023-08-08T07:28:33;1.58;;;1.42;;
10677;SDS011;5387;48.722;9.110;2023-08-08T07:30:59;2.05;;;1.50;;
10677;SDS011;5387;48.722;9.110;2023-08-08T07:33:26;6.40;;;1.55;;
10677;SDS011;5387;48.722;9.110;2023-08-08T07:35:53;2.50;;;1.40;;
10677;SDS011;5387;48.722;9.110;2023-08-08T07:38:20;1.20;;;1.20;;
10677;SDS011;5387;48.722;9.110;2023-08-08T07:40:46;2.08;;;1.33;;
10677;SDS011;5387;48.722;9.110;2023-08-08T07:43:15;3.90;;;1.27;;
10677;SDS011;5387;48.722;9.110;2023-08-08T07:45:42;1.77;;;1.25;;
10677;SDS011;5387;48.722;9.110;2023-08-08T07:48:09;2.92;;;1.55;;
10677;SDS011;5387;48.722;9.110;2023-08-08T07:50:35;5.32;;;1.67;;
10677;SDS011;5387;48.722;9.110;2023-08-08T07:53:02;5.78;;;1.40;;
10677;SDS011;5387;48.722;9.110;2023-08-08T07:55:29;1.52;;;1.35;;
10677;SDS011;5387;48.722;9.110;2023-08-08T07:57:56;1.35;;;1.30;;
10677;SDS011;5387;48.722;9.110;2023-08-08T08:00:24;1.55;;;1.45;;
10677;SDS011;5387;48.722;9.110;2023-08-08T08:02:52;1.58;;;1.30;;
10677;SDS011;5387;48.722;9.110;2023-08-08T08:05:19;1.75;;;1.35;;
10677;SDS011;5387;48.722;9.110;2023-08-08T08:07:45;1.50;;;1.40;;
10677;SDS011;5387;48.722;9.110;2023-08-08T08:10:12;2.40;;;1.38;;
10677;SDS011;5387;48.722;9.110;2023-08-08T08:12:39;1.58;;;1.40;;
10677;SDS011;5387;48.722;9.110;2023-08-08T08:15:07;1.55;;;1.30;;
10677;SDS011;5387;48.722;9.110;2023-08-08T08:17:36;1.83;;;1.63;;
10677;SDS011;5387;48.722;9.110;2023-08-08T08:20:03;1.30;;;1.20;;
10677;SDS011;5387;48.722;9.110;2023-08-08T08:22:35;1.40;;;1.30;;
10677;SDS011;5387;48.722;9.110;2023-08-08T08:25:02;3.30;;;1.50;;
10677;SDS011;5387;48.722;9.110;2023-08-08T08:27:30;3.55;;;1.70;;
10677;SDS011;5387;48.722;9.110;2023-08-08T08:29:57;3.13;;;1.48;;
10677;SDS011;5387;48.722;9.110;2023-08-08T08:32:24;1.63;;;1.52;;
10677;SDS011;5387;48.722;9.110;2023-08-08T08:34:52;3.03;;;1.50;;
10677;SDS011;5387;48.722;9.110;2023-08-08T08:37:19;1.52;;;1.27;;
10677;SDS011;5387;48.722;9.110;2023-08-08T08:39:45;1.52;;;1.42;;
10677;SDS011;5387;48.722;9.110;2023-08-08T08:42:12;3.08;;;1.25;;
10677;SDS011;5387;48.722;9.110;2023-08-08T08:44:40;2.53;;;1.30;;
10677;SDS011;5387;48.722;9.110;2023-08-08T08:47:09;2.40;;;1.40;;
10677;SDS011;5387;48.722;9.110;2023-08-08T08:49:39;2.38;;;1.40;;
10677;SDS011;5387;48.722;9.110;2023-08-08T08:52:09;1.23;;;1.23;;
10677;SDS011;5387;48.722;9.110;2023-08-08T08:54:36;2.83;;;1.30;;
10677;SDS011;5387;48.722;9.110;2023-08-08T08:57:03;2.42;;;1.42;;
10677;SDS011;5387;48.722;9.110;2023-08-08T08:59:30;1.58;;;1.17;;
10677;SDS011;5387;48.722;9.110;2023-08-08T09:01:57;1.60;;;1.50;;
10677;SDS011;5387;48.722;9.110;2023-08-08T09:04:27;1.48;;;1.35;;
10677;SDS011;5387;48.722;9.110;2023-08-08T09:06:55;1.83;;;1.45;;
10677;SDS011;5387;48.722;9.110;2023-08-08T09:09:23;1.30;;;1.20;;
10677;SDS011;5387;48.722;9.110;2023-08-08T09:11:50;2.42;;;1.40;;
10677;SDS011;5387;48.722;9.110;2023-08-08T09:14:20;3.40;;;1.38;;
10677;SDS011;5387;48.722;9.110;2023-08-08T09:16:48;2.15;;;1.23;;
10677;SDS011;5387;48.722;9.110;2023-08-08T09:19:16;1.50;;;1.40;;
10677;SDS011;5387;48.722;9.110;2023-08-08T09:21:43;2.17;;;1.40;;
10677;SDS011;5387;48.722;9.110;2023-08-08T09:24:10;2.17;;;1.50;;
10677;SDS011;5387;48.722;9.110;2023-08-08T09:26:39;3.58;;;1.40;;
10677;SDS011;5387;48.722;9.110;2023-08-08T09:29:07;1.33;;;1.23;;
10677;SDS011;5387;48.722;9.110;2023-08-08T09:31:35;1.55;;;1.40;;
10677;SDS011;5387;48.722;9.110;2023-08-08T09:34:02;4.35;;;1.10;;
10677;SDS011;5387;48.722;9.110;2023-08-08T09:36:30;1.73;;;1.48;;
10677;SDS011;5387;48.722;9.110;2023-08-08T09:38:57;1.98;;;1.70;;
10677;SDS011;5387;48.722;9.110;2023-08-08T09:41:24;0.90;;;0.90;;
10677;SDS011;5387;48.722;9.110;2023-08-08T09:43:52;1.73;;;1.30;;
10677;SDS011;5387;48.722;9.110;2023-08-08T09:46:21;1.08;;;1.08;;
10677;SDS011;5387;48.722;9.110;2023-08-08T09:48:48;1.92;;;1.20;;
10677;SDS011;5387;48.722;9.110;2023-08-08T09:51:16;1.60;;;1.50;;
10677;SDS011;5387;48.722;9.110;2023-08-08T09:53:43;1.10;;;1.10;;
10677;SDS011;5387;48.722;9.110;2023-08-08T09:56:12;1.45;;;1.33;;
10677;SDS011;5387;48.722;9.110;2023-08-08T09:58:40;2.03;;;1.38;;
10677;SDS011;5387;48.722;9.110;2023-08-08T10:01:09;1.63;;;1.50;;
10677;SDS011;5387;48.722;9.110;2023-08-08T10:03:38;1.35;;;1.23;;
10677;SDS011;5387;48.722;9.110;2023-08-08T10:06:08;3.00;;;1.33;;
10677;SDS011;5387;48.722;9.110;2023-08-08T10:08:35;2.67;;;1.15;;
10677;SDS011;5387;48.722;9.110;2023-08-08T10:11:02;1.98;;;1.20;;
10677;SDS011;5387;48.722;9.110;2023-08-08T10:13:31;6.25;;;1.38;;
10677;SDS011;5387;48.722;9.110;2023-08-08T10:16:03;2.20;;;1.30;;
10677;SDS011;5387;48.722;9.110;2023-08-08T10:18:35;1.40;;;1.33;;
10677;SDS011;5387;48.722;9.110;2023-08-08T10:21:03;1.67;;;1.42;;
10677;SDS011;5387;48.722;9.110;2023-08-08T10:23:35;1.50;;;1.40;;
10677;SDS011;5387;48.722;9.110;2023-08-08T10:26:03;3.03;;;1.77;;
10677;SDS011;5387;48.722;9.110;2023-08-08T10:28:31;1.25;;;1.15;;
10677;SDS011;5387;48.722;9.110;2023-08-08T10:31:01;1.75;;;1.50;;
10677;SDS011;5387;48.722;9.110;2023-08-08T10:33:40;1.15;;;1.15;;
10677;SDS011;5387;48.722;9.110;2023-08-08T10:36:09;1.50;;;1.25;;
10677;SDS011;5387;48.722;9.110;2023-08-08T10:38:39;1.30;;;1.20;;
10677;SDS011;5387;48.722;9.110;2023-08-08T10:41:08;1.67;;;1.30;;
10677;SDS011;5387;48.722;9.110;2023-08-08T10:43:36;1.38;;;0.88;;
10677;SDS011;5387;48.722;9.110;2023-08-08T10:46:03;2.08;;;1.30;;
10677;SDS011;5387;48.722;9.110;2023-08-08T10:48:30;1.98;;;1.40;;
10677;SDS011;5387;48.722;9.110;2023-08-08T10:50:58;2.42;;;1.10;;
10677;SDS011;5387;48.722;9.110;2023-08-08T10:53:26;1.02;;;1.02;;
10677;SDS011;5387;48.722;9.110;2023-08-08T10:55:57;1.67;;;1.13;;
10677;SDS011;5387;48.722;9.110;2023-08-08T10:58:34;1.50;;;1.40;;
10677;SDS011;5387;48.722;9.110;2023-08-08T11:01:01;1.90;;;1.30;;
10677;SDS011;5387;48.722;9.110;2023-08-08T11:03:30;1.85;;;1.27;;
10677;SDS011;5387;48.722;9.110;2023-08-08T11:05:59;1.15;;;1.00;;
10677;SDS011;5387;48.722;9.110;2023-08-08T11:08:26;1.55;;;1.33;;
10677;SDS011;5387;48.722;9.110;2023-08-08T11:10:55;1.10;;;1.00;;
10677;SDS011;5387;48.722;9.110;2023-08-08T11:13:22;1.60;;;1.10;;
10677;SDS011;5387;48.722;9.110;2023-08-08T11:15:49;1.30;;;1.20;;
10677;SDS011;5387;48.722;9.110;2023-08-08T11:18:16;2.78;;;1.35;;
10677;SDS011;5387;48.722;9.110;2023-08-08T11:20:43;1.42;;;1.33;;
10677;SDS011;5387;48.722;9.110;2023-08-08T11:23:11;2.25;;;1.48;;
10677;SDS011;5387;48.722;9.110;2023-08-08T11:25:39;3.00;;;1.27;;
10677;SDS011;5387;48.722;9.110;2023-08-08T11:28:07;1.00;;;0.90;;
10677;SDS011;5387;48.722;9.110;2023-08-08T11:30:37;1.65;;;1.10;;
10677;SDS011;5387;48.722;9.110;2023-08-08T11:33:05;1.10;;;1.10;;
10677;SDS011;5387;48.722;9.110;2023-08-08T11:35:32;2.35;;;1.08;;
10677;SDS011;5387;48.722;9.110;2023-08-08T11:38:00;1.67;;;1.30;;
10677;SDS011;5387;48.722;9.110;2023-08-08T11:40:30;1.33;;;1.23;;
10677;SDS011;5387;48.722;9.110;2023-08-08T11:42:58;2.08;;;1.70;;
10677;SDS011;5387;48.722;9.110;2023-08-08T11:45:25;1.30;;;1.20;;
10677;SDS011;5387;48.722;9.110;2023-08-08T11:47:53;1.20;;;1.20;;
10677;SDS011;5387;48.722;9.110;2023-08-08T11:50:22;5.25;;;1.20;;
10677;SDS011;5387;48.722;9.110;2023-08-08T11:52:50;1.40;;;1.30;;
10677;SDS011;5387;48.722;9.110;2023-08-08T11:55:18;1.95;;;1.33;;
10677;SDS011;5387;48.722;9.110;2023-08-08T11:57:48;2.20;;;1.23;;
10677;SDS011;5387;48.722;9.110;2023-08-08T12:00:15;2.58;;;1.40;;
10677;SDS011;5387;48.722;9.110;2023-08-08T12:02:43;2.08;;;1.20;;
10677;SDS011;5387;48.722;9.110;2023-08-08T12:05:11;2.28;;;1.10;;
10677;SDS011;5387;48.722;9.110;2023-08-08T12:07:42;4.35;;;1.25;;
10677;SDS011;5387;48.722;9.110;2023-08-08T12:10:14;1.33;;;1.13;;
10677;SDS011;5387;48.722;9.110;2023-08-08T12:12:42;2.30;;;1.50;;
10677;SDS011;5387;48.722;9.110;2023-08-08T12:15:11;1.10;;;1.10;;
10677;SDS011;5387;48.722;9.110;2023-08-08T12:17:38;1.42;;;1.35;;
10677;SDS011;5387;48.722;9.110;2023-08-08T12:20:05;1.98;;;1.58;;
10677;SDS011;5387;48.722;9.110;2023-08-08T12:22:34;2.83;;;1.50;;
10677;SDS011;5387;48.722;9.110;2023-08-08T12:25:02;2.80;;;1.30;;
10677;SDS011;5387;48.722;9.110;2023-08-08T12:27:29;1.02;;;1.02;;
10677;SDS011;5387;48.722;9.110;2023-08-08T12:29:56;1.40;;;1.30;;
10677;SDS011;5387;48.722;9.110;2023-08-08T12:32:25;2.92;;;1.25;;
10677;SDS011;5387;48.722;9.110;2023-08-08T12:34:53;2.38;;;1.55;;
10677;SDS011;5387;48.722;9.110;2023-08-08T12:37:19;3.33;;;1.30;;
10677;SDS011;5387;48.722;9.110;2023-08-08T12:39:46;4.07;;;1.50;;
10677;SDS011;5387;48.722;9.110;2023-08-08T12:42:13;1.10;;;1.10;;
10677;SDS011;5387;48.722;9.110;2023-08-08T12:44:40;2.15;;;1.50;;
10677;SDS011;5387;48.722;9.110;2023-08-08T12:47:06;1.77;;;1.27;;
10677;SDS011;5387;48.722;9.110;2023-08-08T12:49:35;2.40;;;1.05;;
10677;SDS011;5387;48.722;9.110;2023-08-08T12:52:02;1.50;;;1.35;;
10677;SDS011;5387;48.722;9.110;2023-08-08T12:54:29;1.58;;;1.48;;
10677;SDS011;5387;48.722;9.110;2023-08-08T12:56:55;1.63;;;1.40;;
10677;SDS011;5387;48.722;9.110;2023-08-08T12:59:22;2.05;;;1.23;;
10677;SDS011;5387;48.722;9.110;2023-08-08T13:01:49;1.63;;;1.40;;
10677;SDS011;5387;48.722;9.110;2023-08-08T13:04:16;1.15;;;1.05;;
10677;SDS011;5387;48.722;9.110;2023-08-08T13:06:44;4.45;;;1.40;;
10677;SDS011;5387;48.722;9.110;2023-08-08T13:09:11;2.17;;;1.10;;
10677;SDS011;5387;48.722;9.110;2023-08-08T13:11:37;3.08;;;1.55;;
10677;SDS011;5387;48.722;9.110;2023-08-08T13:14:05;1.55;;;1.30;;
10677;SDS011;5387;48.722;9.110;2023-08-08T13:16:31;1.67;;;1.40;;
10677;SDS011;5387;48.722;9.110;2023-08-08T13:18:58;2.45;;;1.50;;
10677;SDS011;5387;48.722;9.110;2023-08-08T13:21:25;2.65;;;1.30;;
10677;SDS011;5387;48.722;9.110;2023-08-08T13:23:53;2.05;;;1.50;;
10677;SDS011;5387;48.722;9.110;2023-08-08T13:26:20;5.18;;;1.25;;
10677;SDS011;5387;48.722;9.110;2023-08-08T13:28:47;1.20;;;1.10;;
10677;SDS011;5387;48.722;9.110;2023-08-08T13:31:14;7.68;;;1.50;;
10677;SDS011;5387;48.722;9.110;2023-08-08T13:33:41;1.30;;;1.30;;
10677;SDS011;5387;48.722;9.110;2023-08-08T13:36:08;2.22;;;1.27;;
10677;SDS011;5387;48.722;9.110;2023-08-08T13:38:35;4.43;;;1.30;;
10677;SDS011;5387;48.722;9.110;2023-08-08T13:41:04;1.55;;;1.45;;
10677;SDS011;5387;48.722;9.110;2023-08-08T13:43:31;3.22;;;1.63;;
10677;SDS011;5387;48.722;9.110;2023-08-08T13:45:57;3.33;;;1.25;;
10677;SDS011;5387;48.722;9.110;2023-08-08T13:48:25;3.17;;;1.60;;
10677;SDS011;5387;48.722;9.110;2023-08-08T13:50:52;2.00;;;1.38;;
10677;SDS011;5387;48.722;9.110;2023-08-08T13:53:19;4.40;;;1.15;;
10677;SDS011;5387;48.722;9.110;2023-08-08T13:55:46;4.15;;;1.50;;
10677;SDS011;5387;48.722;9.110;2023-08-08T13:58:14;1.05;;;0.90;;
10677;SDS011;5387;48.722;9.110;2023-08-08T14:00:40;2.67;;;1.65;;
10677;SDS011;5387;48.722;9.110;2023-08-08T14:03:07;1.88;;;1.10;;
10677;SDS011;5387;48.722;9.110;2023-08-08T14:05:34;2.45;;;1.20;;
10677;SDS011;5387;48.722;9.110;2023-08-08T14:08:02;3.40;;;1.30;;
10677;SDS011;5387;48.722;9.110;2023-08-08T14:10:30;2.90;;;1.40;;
10677;SDS011;5387;48.722;9.110;2023-08-08T14:12:56;2.47;;;1.25;;
10677;SDS011;5387;48.722;9.110;2023-08-08T14:15:25;1.33;;;1.20;;
10677;SDS011;5387;48.722;9.110;2023-08-08T14:17:51;1.38;;;1.27;;
10677;SDS011;5387;48.722;9.110;2023-08-08T14:20:18;1.20;;;1.10;;
10677;SDS011;5387;48.722;9.110;2023-08-08T14:22:45;1.40;;;1.30;;
10677;SDS011;5387;48.722;9.110;2023-08-08T14:25:12;1.70;;;1.30;;
10677;SDS011;5387;48.722;9.110;2023-08-08T14:27:39;1.45;;;1.35;;
10677;SDS011;5387;48.722;9.110;2023-08-08T14:30:06;3.25;;;1.67;;
10677;SDS011;5387;48.722;9.110;2023-08-08T14:32:35;2.45;;;1.40;;
10677;SDS011;5387;48.722;9.110;2023-08-08T14:35:01;3.55;;;1.52;;
10677;SDS011;5387;48.722;9.110;2023-08-08T14:37:29;1.73;;;1.45;;
10677;SDS011;5387;48.722;9.110;2023-08-08T14:39:56;1.60;;;1.50;;
10677;SDS011;5387;48.722;9.110;2023-08-08T14:42:23;3.50;;;1.40;;
10677;SDS011;5387;48.722;9.110;2023-08-08T14:44:50;3.17;;;1.40;;
10677;SDS011;5387;48.722;9.110;2023-08-08T14:47:17;1.40;;;1.30;;
10677;SDS011;5387;48.722;9.110;2023-08-08T14:49:45;2.65;;;1.30;;
10677;SDS011;5387;48.722;9.110;2023-08-08T14:52:12;1.33;;;1.20;;
10677;SDS011;5387;48.722;9.110;2023-08-08T14:54:39;3.90;;;1.40;;
10677;SDS011;5387;48.722;9.110;2023-08-08T14:57:06;1.67;;;1.40;;
10677;SDS011;5387;48.722;9.110;2023-08-08T14:59:34;2.75;;;1.40;;
10677;SDS011;5387;48.722;9.110;2023-08-08T15:02:00;2.83;;;1.40;;